Time;durP1;ratioP1;P1;durP2;ratioP2;P2;SDS_P1;SDS_P2;PMS_P1;PMS_P2;Temp;Humidity;BMP_temperature;BMP_pressure;BME280_temperature;BME280_humidity;BME280_pressure;Samples;Min_cycle;Max_cycle;Signal;HPM_P1;HPM_P2
2022/11/27 00:01:30;;;;;;;42.10;18.25;;;10.60;78.30;;;;;;2345695;57;21029;-51
2022/11/27 00:03:57;;;;;;;38.70;16.70;;;10.60;78.70;;;;;;2346085;57;21541;-51
2022/11/27 00:09:05;;;;;;;42.67;17.90;;;10.60;78.50;;;;;;2355197;57;22078;-53
2022/11/27 00:11:32;;;;;;;36.30;16.58;;;10.60;78.20;;;;;;2347554;57;21586;-52
2022/11/27 00:14:00;;;;;;;39.03;14.65;;;10.50;78.00;;;;;;2348089;57;21034;-55
2022/11/27 00:16:28;;;;;;;37.33;16.12;;;10.50;78.00;;;;;;2347167;57;21676;-56
2022/11/27 00:18:55;;;;;;;34.55;15.23;;;10.50;78.00;;;;;;2345359;57;21617;-50
2022/11/27 00:21:24;;;;;;;33.30;14.50;;;10.50;77.90;;;;;;2345765;57;21576;-49
2022/11/27 00:23:52;;;;;;;38.95;16.62;;;10.50;77.90;;;;;;2345122;57;21100;-54
2022/11/27 00:26:20;;;;;;;35.17;15.98;;;10.40;77.70;;;;;;2345733;57;21719;-52
2022/11/27 00:28:47;;;;;;;26.75;13.13;;;10.40;77.70;;;;;;2345002;57;21614;-49
2022/11/27 00:31:16;;;;;;;30.12;13.45;;;10.40;77.80;;;;;;2345690;57;21125;-52
2022/11/27 00:33:43;;;;;;;31.20;14.57;;;10.30;77.70;;;;;;2346977;57;21026;-53
2022/11/27 00:36:12;;;;;;;33.65;14.13;;;10.30;77.60;;;;;;2346378;57;21054;-52
2022/11/27 00:38:39;;;;;;;33.75;14.05;;;10.30;77.50;;;;;;2345475;57;21057;-52
2022/11/27 00:41:08;;;;;;;31.30;14.35;;;10.30;77.60;;;;;;2344776;57;21107;-49
2022/11/27 00:43:36;;;;;;;30.60;13.88;;;10.30;77.60;;;;;;2346087;57;21082;-51
2022/11/27 00:46:03;;;;;;;29.23;12.88;;;10.30;77.50;;;;;;2345890;57;21034;-51
2022/11/27 00:48:31;;;;;;;35.95;15.52;;;10.20;77.30;;;;;;2346042;57;21617;-53
2022/11/27 00:51:00;;;;;;;36.25;15.68;;;10.20;77.40;;;;;;2346422;57;21122;-54
2022/11/27 00:53:27;;;;;;;26.90;13.10;;;10.10;78.00;;;;;;2346171;57;21569;-49
2022/11/27 00:55:55;;;;;;;33.97;13.40;;;10.10;77.30;;;;;;2345416;57;21691;-56
2022/11/27 00:58:22;;;;;;;29.48;13.88;;;10.10;77.20;;;;;;2344762;57;21046;-51
2022/11/27 01:00:55;;;;;;;29.27;14.27;;;10.10;77.10;;;;;;2345637;57;21091;-49
2022/11/27 01:03:23;;;;;;;27.55;13.00;;;10.10;77.20;;;;;;2345751;57;21050;-56
2022/11/27 01:05:50;;;;;;;30.62;12.75;;;10.10;77.30;;;;;;2345661;57;21594;-53
2022/11/27 01:08:18;;;;;;;21.62;11.25;;;10.00;77.50;;;;;;2345455;57;21042;-52
2022/11/27 01:10:49;;;;;;;24.83;11.48;;;10.00;77.80;;;;;;2347121;57;21022;-49
2022/11/27 01:13:16;;;;;;;30.90;13.10;;;10.00;78.10;;;;;;2346405;57;21136;-51
2022/11/27 01:15:44;;;;;;;31.52;14.35;;;10.00;78.00;;;;;;2345467;57;22071;-49
2022/11/27 01:18:11;;;;;;;29.80;14.35;;;10.00;77.90;;;;;;2345451;57;21510;-50
2022/11/27 01:20:39;;;;;;;23.27;12.40;;;10.00;77.90;;;;;;2344403;57;21549;-55
2022/11/27 01:23:07;;;;;;;31.50;13.25;;;9.90;77.80;;;;;;2344843;57;21444;-55
2022/11/27 01:25:34;;;;;;;34.20;13.80;;;9.90;77.80;;;;;;2345292;57;22082;-51
2022/11/27 01:28:02;;;;;;;33.85;15.40;;;9.90;77.60;;;;;;2344683;57;21145;-51
2022/11/27 01:30:29;;;;;;;35.55;14.50;;;9.90;77.60;;;;;;2344845;57;21184;-52
2022/11/27 01:32:56;;;;;;;32.03;14.95;;;9.90;77.60;;;;;;2344055;57;21053;-51
2022/11/27 01:35:23;;;;;;;29.85;13.82;;;9.90;77.40;;;;;;2344449;57;21058;-54
2022/11/27 01:37:50;;;;;;;24.98;12.82;;;9.80;77.40;;;;;;2344364;57;21602;-51
2022/11/27 01:40:18;;;;;;;27.83;12.95;;;9.80;77.50;;;;;;2344557;57;21098;-51
2022/11/27 01:42:45;;;;;;;30.98;13.10;;;9.80;78.50;;;;;;2345860;57;21030;-54
2022/11/27 01:45:17;;;;;;;33.83;14.50;;;9.70;77.70;;;;;;2346205;57;21085;-53
2022/11/27 01:47:47;;;;;;;31.65;14.13;;;9.70;77.70;;;;;;2345814;57;21093;-49
2022/11/27 01:50:21;;;;;;;27.23;13.52;;;9.70;77.80;;;;;;2344436;57;21526;-49
2022/11/27 01:52:54;;;;;;;28.10;13.10;;;9.70;77.80;;;;;;2344548;57;21101;-51
2022/11/27 01:55:27;;;;;;;34.47;13.45;;;9.70;77.80;;;;;;2344917;57;21046;-53
2022/11/27 01:57:59;;;;;;;30.00;12.50;;;9.60;77.70;;;;;;2344510;57;21082;-51
2022/11/27 02:00:26;;;;;;;31.55;12.63;;;9.70;77.80;;;;;;2344952;57;21117;-53
2022/11/27 02:02:54;;;;;;;28.20;12.80;;;9.60;77.80;;;;;;2345236;57;21558;-56
2022/11/27 02:05:23;;;;;;;28.20;12.05;;;9.60;77.90;;;;;;2344429;57;21058;-50
2022/11/27 02:07:51;;;;;;;34.03;13.32;;;9.60;78.00;;;;;;2344026;57;21556;-51
2022/11/27 02:10:19;;;;;;;30.08;13.52;;;9.60;78.00;;;;;;2344697;57;21546;-51
2022/11/27 02:12:56;;;;;;;28.10;13.15;;;9.60;77.90;;;;;;2344291;57;21541;-52
2022/11/27 02:15:30;;;;;;;25.77;12.60;;;9.60;77.80;;;;;;2344755;57;21541;-49
2022/11/27 02:18:10;;;;;;;25.60;11.98;;;9.50;77.70;;;;;;2344823;57;22282;-50
2022/11/27 02:20:46;;;;;;;25.75;11.85;;;9.50;77.70;;;;;;2346001;57;21026;-50
2022/11/27 02:23:55;;;;;;;27.48;12.50;;;9.50;77.70;;;;;;2345050;57;21074;-54
2022/11/27 02:26:48;;;;;;;24.63;9.80;;;9.50;77.70;;;;;;2345984;57;21106;-52
2022/11/27 02:29:18;;;;;;;21.15;10.32;;;9.50;77.50;;;;;;2345005;57;21617;-53
2022/11/27 02:31:52;;;;;;;21.23;10.60;;;9.50;77.50;;;;;;2344637;57;21757;-52
2022/11/27 02:34:26;;;;;;;18.12;9.52;;;9.40;77.40;;;;;;2344578;57;21113;-52
2022/11/27 02:37:00;;;;;;;27.20;11.73;;;9.40;77.50;;;;;;2344684;57;21050;-54
2022/11/27 02:39:31;;;;;;;28.23;11.20;;;9.40;77.40;;;;;;2343951;57;21102;-51
2022/11/27 02:42:05;;;;;;;23.55;10.32;;;9.30;77.40;;;;;;2345294;57;21042;-55
2022/11/27 02:44:35;;;;;;;22.37;11.25;;;9.40;77.40;;;;;;2343828;57;22170;-56
2022/11/27 02:47:04;;;;;;;26.62;11.90;;;9.30;77.40;;;;;;2344326;57;21082;-55
2022/11/27 02:49:32;;;;;;;23.50;10.85;;;9.30;77.30;;;;;;2344602;57;21065;-50
2022/11/27 02:52:02;;;;;;;26.23;11.95;;;9.30;77.40;;;;;;2344548;57;21625;-51
2022/11/27 02:54:31;;;;;;;25.27;12.48;;;9.20;77.40;;;;;;2344201;57;21530;-52
2022/11/27 02:57:03;;;;;;;21.73;10.77;;;9.20;77.60;;;;;;2344231;57;21526;-54
2022/11/27 02:59:32;;;;;;;31.42;12.65;;;9.20;77.80;;;;;;2344623;57;21074;-52
2022/11/27 03:02:04;;;;;;;23.85;10.85;;;9.20;77.70;;;;;;2345597;57;21503;-51
2022/11/27 03:04:36;;;;;;;24.35;12.20;;;9.20;77.60;;;;;;2345702;57;21505;-51
2022/11/27 03:07:11;;;;;;;23.87;11.47;;;9.20;77.50;;;;;;2344971;57;22130;-50
2022/11/27 03:09:41;;;;;;;22.45;11.98;;;9.10;77.20;;;;;;2344625;57;21747;-50
2022/11/27 03:12:11;;;;;;;24.80;11.23;;;9.10;77.10;;;;;;2343659;57;21030;-55
2022/11/27 03:14:40;;;;;;;20.37;10.60;;;9.10;77.00;;;;;;2344619;57;22065;-49
2022/11/27 03:17:18;;;;;;;23.75;12.20;;;9.10;77.00;;;;;;2344501;57;21624;-51
2022/11/27 03:19:52;;;;;;;19.73;10.98;;;9.00;77.00;;;;;;2345348;57;21026;-53
2022/11/27 03:22:20;;;;;;;27.13;11.60;;;9.00;76.80;;;;;;2345074;57;21538;-55
2022/11/27 03:24:48;;;;;;;25.23;11.95;;;9.00;76.70;;;;;;2343976;57;21038;-55
2022/11/27 03:27:21;;;;;;;17.52;10.30;;;9.00;76.70;;;;;;2344078;57;21615;-53
2022/11/27 03:29:51;;;;;;;23.05;10.30;;;9.00;76.80;;;;;;2344782;57;21545;-54
2022/11/27 03:32:19;;;;;;;21.30;8.82;;;9.00;76.80;;;;;;2344630;57;21542;-51
2022/11/27 03:34:47;;;;;;;25.12;10.95;;;9.00;76.90;;;;;;2344128;57;21624;-52
2022/11/27 03:37:15;;;;;;;29.87;11.90;;;8.90;76.90;;;;;;2345790;57;21492;-52
2022/11/27 03:39:42;;;;;;;21.77;10.98;;;8.90;76.70;;;;;;2345852;57;21499;-49
2022/11/27 03:42:18;;;;;;;23.70;10.52;;;8.90;76.80;;;;;;2345097;57;21066;-54
2022/11/27 03:44:51;;;;;;;19.30;9.40;;;8.90;76.90;;;;;;2343750;57;21042;-54
2022/11/27 03:47:33;;;;;;;21.30;11.00;;;8.90;77.00;;;;;;2344623;57;21586;-50
2022/11/27 03:50:16;;;;;;;18.42;11.10;;;8.80;76.80;;;;;;2344350;57;21034;-52
2022/11/27 03:55:31;;;;;;;19.33;9.00;;;8.80;76.70;;;;;;2356264;57;22407;-51
2022/11/27 03:58:02;;;;;;;24.67;10.00;;;8.80;76.90;;;;;;2374163;56;21555;-55
2022/11/27 04:00:33;;;;;;;20.88;9.85;;;8.70;76.80;;;;;;2374708;56;22047;-55
2022/11/27 04:03:02;;;;;;;18.17;9.20;;;8.70;76.80;;;;;;2373983;56;21586;-55
2022/11/27 04:05:29;;;;;;;22.02;10.68;;;8.70;76.80;;;;;;2374815;56;21031;-48
2022/11/27 04:07:57;;;;;;;20.65;10.30;;;8.70;77.00;;;;;;2374530;56;21083;-54
2022/11/27 04:10:24;;;;;;;23.90;11.30;;;8.60;77.00;;;;;;2374936;56;21547;-54
2022/11/27 04:12:51;;;;;;;25.55;10.73;;;8.60;77.10;;;;;;2374535;56;21118;-53
2022/11/27 04:15:19;;;;;;;18.62;10.20;;;8.60;77.40;;;;;;2374724;56;21105;-49
2022/11/27 04:17:46;;;;;;;22.77;12.00;;;8.60;78.40;;;;;;2374869;56;21621;-57
2022/11/27 04:20:14;;;;;;;22.98;10.75;;;8.50;77.70;;;;;;2374395;56;21031;-48
2022/11/27 04:22:41;;;;;;;27.50;12.82;;;8.50;77.80;;;;;;2374440;56;21658;-55
2022/11/27 04:25:09;;;;;;;24.98;12.82;;;8.50;77.90;;;;;;2374465;56;21098;-55
2022/11/27 04:27:36;;;;;;;27.02;11.35;;;8.50;77.90;;;;;;2374287;56;21090;-53
2022/11/27 04:30:06;;;;;;;22.02;11.43;;;8.50;78.10;;;;;;2373991;56;21118;-53
2022/11/27 04:32:33;;;;;;;23.65;11.10;;;8.50;78.20;;;;;;2374828;56;21059;-50
2022/11/27 04:35:00;;;;;;;20.10;10.95;;;8.50;78.40;;;;;;2375442;56;21056;-55
2022/11/27 04:37:27;;;;;;;23.15;10.77;;;8.50;78.40;;;;;;2374520;56;21051;-48
2022/11/27 04:39:55;;;;;;;26.92;11.65;;;8.40;78.40;;;;;;2374359;56;21602;-53
2022/11/27 04:42:22;;;;;;;23.10;11.48;;;8.40;78.60;;;;;;2374218;56;21531;-51
2022/11/27 04:44:49;;;;;;;24.10;12.93;;;8.40;78.60;;;;;;2374808;56;21566;-54
2022/11/27 04:47:16;;;;;;;25.60;12.15;;;8.40;78.50;;;;;;2374685;56;21624;-55
2022/11/27 04:49:44;;;;;;;23.98;11.52;;;8.40;78.50;;;;;;2374810;56;21546;-54
2022/11/27 04:52:11;;;;;;;24.55;12.50;;;8.40;78.50;;;;;;2373547;56;21550;-55
2022/11/27 04:54:39;;;;;;;23.70;11.12;;;8.40;78.60;;;;;;2374790;56;21118;-52
2022/11/27 04:57:06;;;;;;;26.65;12.35;;;8.40;78.70;;;;;;2374709;56;21598;-54
2022/11/27 04:59:33;;;;;;;25.42;10.35;;;8.40;78.70;;;;;;2374416;56;21134;-52
2022/11/27 05:02:00;;;;;;;26.00;11.52;;;8.40;78.80;;;;;;2374048;56;21042;-50
2022/11/27 05:04:27;;;;;;;33.15;13.90;;;8.40;78.80;;;;;;2374584;56;21118;-50
2022/11/27 05:06:54;;;;;;;25.50;12.98;;;8.30;78.80;;;;;;2373901;56;21113;-52
2022/11/27 05:09:22;;;;;;;26.00;11.90;;;8.30;78.80;;;;;;2374192;56;21038;-51
2022/11/27 05:11:49;;;;;;;20.50;11.48;;;8.30;78.90;;;;;;2373426;56;21038;-56
2022/11/27 05:14:17;;;;;;;24.90;11.30;;;8.30;79.00;;;;;;2373737;56;21555;-49
2022/11/27 05:16:47;;;;;;;27.42;12.60;;;8.30;78.90;;;;;;2373887;56;21054;-52
2022/11/27 05:19:15;;;;;;;22.45;12.00;;;8.30;78.80;;;;;;2373741;56;21051;-54
2022/11/27 05:21:43;;;;;;;21.35;11.88;;;8.30;78.70;;;;;;2372944;56;21098;-50
2022/11/27 05:24:10;;;;;;;26.05;11.57;;;8.30;78.60;;;;;;2373913;56;21551;-52
2022/11/27 05:26:38;;;;;;;28.23;12.82;;;8.30;78.50;;;;;;2374478;56;21027;-52
2022/11/27 05:29:06;;;;;;;22.87;12.23;;;8.30;78.20;;;;;;2375052;56;21034;-54
2022/11/27 05:31:34;;;;;;;25.60;12.88;;;8.30;78.00;;;;;;2374167;56;21019;-52
2022/11/27 05:34:01;;;;;;;24.50;12.20;;;8.30;77.90;;;;;;2373723;56;21654;-52
2022/11/27 05:36:29;;;;;;;25.73;13.18;;;8.30;77.80;;;;;;2373866;56;21614;-51
2022/11/27 05:38:56;;;;;;;25.45;13.38;;;8.20;77.60;;;;;;2373896;56;21563;-49
2022/11/27 05:44:00;;;;;;;27.05;13.10;;;8.20;77.80;;;;;;2355856;57;22066;-52
2022/11/27 05:46:27;;;;;;;28.77;13.88;;;8.10;77.50;;;;;;2357698;56;21131;-55
2022/11/27 05:48:54;;;;;;;26.37;13.18;;;8.10;77.40;;;;;;2375091;56;21052;-52
2022/11/27 05:51:21;;;;;;;27.17;13.40;;;8.10;77.50;;;;;;2374527;56;21119;-50
2022/11/27 05:53:49;;;;;;;27.02;13.93;;;8.10;77.50;;;;;;2374972;56;21047;-55
2022/11/27 05:56:17;;;;;;;22.95;12.05;;;8.00;77.40;;;;;;2374855;56;21058;-55
2022/11/27 05:58:46;;;;;;;27.42;13.32;;;8.00;77.40;;;;;;2373930;56;21606;-57
2022/11/27 06:01:14;;;;;;;24.52;13.70;;;8.00;77.50;;;;;;2374421;56;21551;-52
2022/11/27 06:03:42;;;;;;;24.77;12.98;;;8.00;77.50;;;;;;2375710;56;21599;-55
2022/11/27 06:06:12;;;;;;;23.23;13.45;;;7.90;77.50;;;;;;2375979;56;21027;-51
2022/11/27 06:08:40;;;;;;;25.88;13.23;;;7.90;77.50;;;;;;2376137;56;21012;-54
2022/11/27 06:11:09;;;;;;;25.10;12.85;;;7.90;77.50;;;;;;2374878;56;21030;-59
2022/11/27 06:13:36;;;;;;;30.75;13.93;;;7.80;77.50;;;;;;2374904;56;21175;-50
2022/11/27 06:16:08;;;;;;;24.83;13.68;;;7.80;77.60;;;;;;2373824;56;21032;-53
2022/11/27 06:18:35;;;;;;;23.83;13.05;;;7.80;77.60;;;;;;2374918;56;21032;-51
2022/11/27 06:21:07;;;;;;;26.83;14.18;;;7.80;77.50;;;;;;2374698;56;21040;-56
2022/11/27 06:23:34;;;;;;;28.85;14.20;;;7.80;77.50;;;;;;2375121;56;21056;-59
2022/11/27 06:26:14;;;;;;;33.38;14.32;;;7.80;77.50;;;;;;2375051;56;21622;-55
2022/11/27 06:28:42;;;;;;;35.78;15.63;;;7.70;77.50;;;;;;2374276;56;21600;-53
2022/11/27 06:31:11;;;;;;;25.90;14.30;;;7.70;77.40;;;;;;2374183;56;21701;-53
2022/11/27 06:33:39;;;;;;;29.42;13.18;;;7.70;77.40;;;;;;2374352;56;21028;-55
2022/11/27 06:36:07;;;;;;;31.30;14.38;;;7.70;77.40;;;;;;2374700;56;21123;-54
2022/11/27 06:38:36;;;;;;;25.33;13.50;;;7.70;77.20;;;;;;2374908;56;21103;-52
2022/11/27 06:41:05;;;;;;;26.25;13.93;;;7.60;77.00;;;;;;2375941;56;21512;-51
2022/11/27 06:43:33;;;;;;;28.70;15.00;;;7.60;77.00;;;;;;2375186;56;21119;-54
2022/11/27 06:46:02;;;;;;;29.10;14.45;;;7.60;77.00;;;;;;2375428;56;21028;-51
2022/11/27 06:48:30;;;;;;;28.40;13.98;;;7.60;77.10;;;;;;2375242;56;21194;-55
2022/11/27 06:51:00;;;;;;;28.00;14.57;;;7.50;77.20;;;;;;2374903;56;21705;-53
2022/11/27 06:53:28;;;;;;;30.90;15.10;;;7.50;77.40;;;;;;2374306;56;21524;-52
2022/11/27 06:55:55;;;;;;;23.12;12.95;;;7.50;77.60;;;;;;2373831;56;21052;-55
2022/11/27 06:58:22;;;;;;;31.17;15.30;;;7.50;77.80;;;;;;2374139;56;21091;-51
2022/11/27 07:00:55;;;;;;;25.45;14.32;;;7.50;78.50;;;;;;2374143;56;21051;-51
2022/11/27 07:03:23;;;;;;;30.58;14.90;;;7.40;78.00;;;;;;2373128;56;21666;-52
2022/11/27 07:05:50;;;;;;;29.85;14.87;;;7.50;77.90;;;;;;2374074;56;21027;-50
2022/11/27 07:08:17;;;;;;;32.72;15.35;;;7.50;78.00;;;;;;2373760;56;21298;-52
2022/11/27 07:10:44;;;;;;;32.53;14.02;;;7.40;77.90;;;;;;2373921;56;21056;-51
2022/11/27 07:13:12;;;;;;;29.17;14.48;;;7.40;78.00;;;;;;2373644;56;21163;-51
2022/11/27 07:15:39;;;;;;;28.48;14.55;;;7.40;78.00;;;;;;2373365;56;21114;-54
2022/11/27 07:18:06;;;;;;;27.45;14.48;;;7.40;78.00;;;;;;2373376;56;21044;-52
2022/11/27 07:20:33;;;;;;;28.33;14.95;;;7.40;78.10;;;;;;2373152;56;21052;-51
2022/11/27 07:23:00;;;;;;;30.67;15.18;;;7.40;78.00;;;;;;2373497;56;22192;-49
2022/11/27 07:25:27;;;;;;;31.90;15.77;;;7.40;77.90;;;;;;2373659;56;21548;-51
2022/11/27 07:27:55;;;;;;;29.83;14.45;;;7.30;77.80;;;;;;2373292;56;21064;-49
2022/11/27 07:30:23;;;;;;;25.83;14.02;;;7.30;77.90;;;;;;2373774;56;21024;-55
2022/11/27 07:32:50;;;;;;;32.17;14.95;;;7.30;78.00;;;;;;2373737;56;21595;-48
2022/11/27 07:35:18;;;;;;;28.33;13.65;;;7.30;78.10;;;;;;2373111;56;21032;-53
2022/11/27 07:37:45;;;;;;;32.25;16.00;;;7.30;78.10;;;;;;2373574;56;21028;-53
2022/11/27 07:40:13;;;;;;;33.03;14.18;;;7.30;78.10;;;;;;2374025;56;21044;-51
2022/11/27 07:42:40;;;;;;;28.87;13.30;;;7.30;78.00;;;;;;2373928;56;21068;-48
2022/11/27 07:45:09;;;;;;;32.05;15.68;;;7.30;77.90;;;;;;2373830;56;21047;-52
2022/11/27 07:47:37;;;;;;;34.22;14.82;;;7.30;77.90;;;;;;2373734;56;21631;-52
2022/11/27 07:50:07;;;;;;;28.52;14.27;;;7.30;77.80;;;;;;2373509;56;21036;-52
2022/11/27 07:52:35;;;;;;;26.08;13.27;;;7.30;77.90;;;;;;2373082;56;21039;-50
2022/11/27 07:55:02;;;;;;;25.35;13.60;;;7.30;78.00;;;;;;2373062;56;21060;-54
2022/11/27 07:57:30;;;;;;;32.08;13.65;;;7.30;77.90;;;;;;2373664;56;21110;-51
2022/11/27 07:59:57;;;;;;;30.98;15.30;;;7.30;77.80;;;;;;2373565;56;21590;-54
2022/11/27 08:02:25;;;;;;;27.42;12.55;;;7.30;77.80;;;;;;2373560;56;21131;-52
2022/11/27 08:04:52;;;;;;;25.30;13.13;;;7.30;77.80;;;;;;2373738;56;21163;-51
2022/11/27 08:07:19;;;;;;;26.95;13.93;;;7.30;78.10;;;;;;2372967;56;21083;-51
2022/11/27 08:09:46;;;;;;;29.02;13.07;;;7.30;78.20;;;;;;2373068;56;21052;-54
2022/11/27 08:12:14;;;;;;;25.00;11.90;;;7.30;78.50;;;;;;2373596;56;21126;-49
2022/11/27 08:14:42;;;;;;;25.62;13.07;;;7.30;78.50;;;;;;2373924;56;21528;-49
2022/11/27 08:17:11;;;;;;;31.23;14.75;;;7.20;78.90;;;;;;2374577;56;21055;-51
2022/11/27 08:19:38;;;;;;;26.70;13.02;;;7.20;78.70;;;;;;2374194;56;21035;-49
2022/11/27 08:22:09;;;;;;;30.95;14.32;;;7.20;78.80;;;;;;2373737;56;21103;-49
2022/11/27 08:24:37;;;;;;;23.65;11.38;;;7.20;78.90;;;;;;2372816;56;21563;-49
2022/11/27 08:27:04;;;;;;;24.73;13.35;;;7.30;79.70;;;;;;2373314;56;21056;-49
2022/11/27 08:29:31;;;;;;;24.45;12.48;;;7.20;79.10;;;;;;2373035;56;21178;-53
2022/11/27 08:31:59;;;;;;;33.83;14.27;;;7.20;79.10;;;;;;2373471;56;21149;-49
2022/11/27 08:34:26;;;;;;;26.95;12.80;;;7.20;79.20;;;;;;2373709;56;21043;-48
2022/11/27 08:36:53;;;;;;;30.08;12.88;;;7.20;80.00;;;;;;2372716;56;21532;-49
2022/11/27 08:39:20;;;;;;;22.83;11.60;;;7.20;79.40;;;;;;2372648;56;21055;-52
2022/11/27 08:41:47;;;;;;;25.02;12.63;;;7.20;79.70;;;;;;2372740;56;21175;-51
2022/11/27 08:44:15;;;;;;;29.02;13.35;;;7.30;80.00;;;;;;2371793;56;21056;-52
2022/11/27 08:46:43;;;;;;;24.70;12.63;;;7.30;80.10;;;;;;2373646;56;21659;-52
2022/11/27 08:49:10;;;;;;;23.77;11.93;;;7.30;80.30;;;;;;2373852;56;21604;-50
2022/11/27 08:51:37;;;;;;;19.85;10.35;;;7.30;80.40;;;;;;2373882;56;21040;-50
2022/11/27 08:54:05;;;;;;;22.77;11.27;;;7.40;80.50;;;;;;2373902;56;21036;-49
2022/11/27 08:56:32;;;;;;;23.17;11.93;;;7.40;80.70;;;;;;2373990;56;21052;-50
2022/11/27 08:58:59;;;;;;;23.27;12.30;;;7.50;80.80;;;;;;2372897;56;21626;-51
2022/11/27 09:01:28;;;;;;;27.33;12.18;;;7.50;80.80;;;;;;2373575;56;21127;-51
2022/11/27 09:03:56;;;;;;;22.65;12.23;;;7.50;80.90;;;;;;2372848;56;21124;-47
2022/11/27 09:06:27;;;;;;;24.75;12.20;;;7.60;80.70;;;;;;2373093;56;22169;-53
2022/11/27 09:08:56;;;;;;;26.55;12.43;;;7.60;80.50;;;;;;2374969;56;21103;-52
2022/11/27 09:11:23;;;;;;;23.17;11.35;;;7.60;80.40;;;;;;2374606;56;21028;-53
2022/11/27 09:13:51;;;;;;;21.05;10.93;;;7.60;80.40;;;;;;2374857;56;21083;-53
2022/11/27 09:16:20;;;;;;;19.55;11.43;;;7.60;80.40;;;;;;2372354;56;21028;-52
2022/11/27 09:18:49;;;;;;;21.35;11.93;;;7.60;80.40;;;;;;2373485;56;21059;-51
2022/11/27 09:21:18;;;;;;;33.20;12.88;;;7.70;80.30;;;;;;2373300;56;21104;-50
2022/11/27 09:23:46;;;;;;;26.62;11.68;;;7.70;80.10;;;;;;2373764;56;21608;-51
2022/11/27 09:26:17;;;;;;;25.20;11.65;;;7.70;80.10;;;;;;2374109;56;21067;-50
2022/11/27 09:28:44;;;;;;;27.27;11.77;;;7.60;79.90;;;;;;2374168;56;21118;-53
2022/11/27 09:31:14;;;;;;;27.70;12.60;;;7.70;79.80;;;;;;2372203;56;21100;-49
2022/11/27 09:33:42;;;;;;;21.90;10.82;;;7.70;79.90;;;;;;2373131;56;21760;-50
2022/11/27 09:36:14;;;;;;;19.73;10.95;;;7.70;79.90;;;;;;2372615;56;21560;-51
2022/11/27 09:38:42;;;;;;;24.08;12.60;;;7.70;80.00;;;;;;2373021;56;21530;-50
2022/11/27 09:41:37;;;;;;;26.52;13.05;;;7.80;79.90;;;;;;2373487;56;21630;-52
2022/11/27 09:44:15;;;;;;;22.50;10.32;;;7.80;79.80;;;;;;2372691;56;21102;-53
2022/11/27 09:46:43;;;;;;;21.73;11.73;;;7.80;79.50;;;;;;2374959;56;21095;-51
2022/11/27 09:49:15;;;;;;;23.17;11.60;;;7.80;79.60;;;;;;2374595;56;21065;-51
2022/11/27 09:51:46;;;;;;;19.20;11.45;;;7.80;79.60;;;;;;2373724;56;21122;-48
2022/11/27 09:54:18;;;;;;;20.08;10.57;;;7.80;79.60;;;;;;2373659;56;21218;-50
2022/11/27 09:56:49;;;;;;;21.23;11.60;;;7.80;79.60;;;;;;2372714;56;21036;-50
2022/11/27 09:59:19;;;;;;;21.80;10.88;;;7.80;79.70;;;;;;2373246;56;21627;-53
2022/11/27 10:01:47;;;;;;;18.48;10.68;;;7.80;79.50;;;;;;2373281;56;21036;-54
2022/11/27 10:04:18;;;;;;;23.05;10.82;;;7.80;79.70;;;;;;2373941;56;21059;-52
2022/11/27 10:07:08;;;;;;;18.52;10.05;;;7.80;79.70;;;;;;2372609;56;21060;-52
2022/11/27 10:09:48;;;;;;;20.17;11.43;;;7.80;79.90;;;;;;2372768;56;21591;-51
2022/11/27 10:12:21;;;;;;;21.70;11.02;;;7.90;80.00;;;;;;2373312;56;21527;-50
2022/11/27 10:15:02;;;;;;;30.00;11.85;;;7.90;80.00;;;;;;2373467;56;21612;-50
2022/11/27 10:17:36;;;;;;;24.02;11.90;;;7.90;80.20;;;;;;2373836;56;21111;-52
2022/11/27 10:20:15;;;;;;;20.30;11.23;;;7.90;80.20;;;;;;2373259;56;21059;-51
2022/11/27 10:22:49;;;;;;;20.10;9.88;;;7.90;80.30;;;;;;2373913;56;21023;-52
2022/11/27 10:25:19;;;;;;;24.50;11.18;;;8.00;80.30;;;;;;2373688;56;21516;-53
2022/11/27 10:27:58;;;;;;;23.38;11.15;;;8.00;80.40;;;;;;2373274;56;21064;-50
2022/11/27 10:33:12;;;;;;;20.48;11.38;;;8.10;80.50;;;;;;2355379;57;22081;-52
2022/11/27 10:35:41;;;;;;;19.50;10.57;;;8.10;80.40;;;;;;2346463;57;21049;-55
2022/11/27 10:38:13;;;;;;;19.08;10.40;;;8.10;80.20;;;;;;2344538;57;22142;-55
2022/11/27 10:40:47;;;;;;;24.27;11.25;;;8.10;80.10;;;;;;2345413;57;21038;-53
2022/11/27 10:43:16;;;;;;;;;;;8.20;80.20;;;;;;2350069;57;21553;-48
2022/11/27 10:50:53;;;;;;;21.42;12.25;;;8.30;80.20;;;;;;2335041;57;27797;-50
2022/11/27 10:53:26;;;;;;;20.42;10.93;;;8.30;81.70;;;;;;2346044;57;21050;-55
2022/11/27 10:56:04;;;;;;;22.00;10.23;;;8.40;81.30;;;;;;2348367;56;21050;-52
2022/11/27 10:58:36;;;;;;;17.20;9.68;;;8.50;80.40;;;;;;2374578;56;21588;-52
2022/11/27 11:01:06;;;;;;;16.23;9.90;;;8.50;80.00;;;;;;2375737;56;21592;-55
2022/11/27 11:03:34;;;;;;;17.30;10.07;;;8.60;79.80;;;;;;2375110;56;21035;-54
2022/11/27 11:06:04;;;;;;;20.77;10.23;;;8.60;79.60;;;;;;2375038;56;21028;-53
2022/11/27 11:08:32;;;;;;;20.85;9.75;;;8.60;79.40;;;;;;2374377;56;21052;-52
2022/11/27 11:11:02;;;;;;;19.95;10.70;;;8.70;79.40;;;;;;2373609;56;21596;-53
2022/11/27 11:13:30;;;;;;;14.60;9.00;;;8.70;79.30;;;;;;2374435;56;21611;-51
2022/11/27 11:16:02;;;;;;;16.25;8.73;;;8.70;79.20;;;;;;2374495;56;21210;-50
2022/11/27 11:18:31;;;;;;;16.95;9.63;;;8.70;79.20;;;;;;2374410;56;21036;-51
2022/11/27 11:23:40;;;;;;;18.65;9.68;;;8.70;78.90;;;;;;2355533;57;22145;-50
2022/11/27 11:26:14;;;;;;;15.65;9.20;;;8.70;78.90;;;;;;2351664;56;21062;-53
2022/11/27 11:28:48;;;;;;;17.23;10.40;;;8.70;78.80;;;;;;2374259;56;21523;-52
2022/11/27 11:31:19;;;;;;;16.15;9.60;;;8.80;78.80;;;;;;2374347;56;21544;-52
2022/11/27 11:33:54;;;;;;;19.85;10.32;;;8.80;78.80;;;;;;2373899;56;21074;-53
2022/11/27 11:36:22;;;;;;;18.37;10.18;;;8.80;78.80;;;;;;2373893;56;21063;-51
2022/11/27 11:38:50;;;;;;;16.58;9.35;;;8.80;78.60;;;;;;2374935;56;21050;-52
2022/11/27 11:41:18;;;;;;;16.23;9.13;;;8.90;78.60;;;;;;2375863;56;21035;-50
2022/11/27 11:43:55;;;;;;;20.00;10.23;;;8.80;79.30;;;;;;2375558;56;21563;-53
2022/11/27 11:46:26;;;;;;;17.52;9.40;;;8.80;78.60;;;;;;2375015;56;21532;-51
2022/11/27 11:49:04;;;;;;;14.70;8.93;;;8.90;78.50;;;;;;2374396;56;21523;-54
2022/11/27 11:52:10;;;;;;;15.05;9.32;;;8.90;78.50;;;;;;2374506;56;21555;-50
2022/11/27 11:54:46;;;;;;;16.52;9.68;;;8.90;78.40;;;;;;2374851;56;21511;-51
2022/11/27 11:57:44;;;;;;;15.15;9.65;;;8.90;78.30;;;;;;2375146;56;21066;-53
2022/11/27 12:03:07;;;;;;;15.07;8.77;;;8.90;78.20;;;;;;2355893;57;22069;-49
2022/11/27 12:05:40;;;;;;;14.40;8.43;;;8.90;78.50;;;;;;2346805;57;21049;-50
2022/11/27 12:08:32;;;;;;;13.82;8.10;;;8.90;78.20;;;;;;2320385;58;21056;-50
2022/11/27 12:11:08;;;;;;;19.08;9.88;;;8.90;78.30;;;;;;2319921;58;21634;-52
2022/11/27 12:13:48;;;;;;;16.33;8.90;;;9.00;78.30;;;;;;2320490;58;21135;-50
2022/11/27 12:16:24;;;;;;;17.27;9.15;;;9.00;78.20;;;;;;2320325;58;21548;-52
2022/11/27 12:19:11;;;;;;;16.25;9.30;;;9.00;78.10;;;;;;2319796;58;21060;-52
2022/11/27 12:21:46;;;;;;;19.58;9.75;;;9.00;78.10;;;;;;2320097;58;21201;-54
2022/11/27 12:24:25;;;;;;;14.05;8.93;;;9.00;77.90;;;;;;2320431;58;21060;-51
2022/11/27 12:27:06;;;;;;;13.48;8.57;;;9.00;77.80;;;;;;2319727;58;21620;-50
2022/11/27 12:30:01;;;;;;;13.52;8.73;;;9.00;77.90;;;;;;2319878;58;21046;-50
2022/11/27 12:32:42;;;;;;;19.12;10.95;;;9.00;77.80;;;;;;2320041;58;21592;-49
2022/11/27 12:35:30;;;;;;;16.80;9.27;;;9.00;77.60;;;;;;2319951;58;21626;-55
2022/11/27 12:38:24;;;;;;;15.05;9.07;;;9.00;77.70;;;;;;2320619;58;21056;-49
2022/11/27 12:41:12;;;;;;;16.33;9.27;;;9.00;77.70;;;;;;2320720;58;21386;-49
2022/11/27 12:43:45;;;;;;;14.00;9.07;;;9.00;77.70;;;;;;2319865;58;21115;-52
2022/11/27 12:46:18;;;;;;;19.08;10.13;;;9.00;77.50;;;;;;2320530;58;21631;-54
2022/11/27 12:48:50;;;;;;;19.95;10.73;;;9.00;77.50;;;;;;2320371;58;21059;-52
2022/11/27 12:51:22;;;;;;;20.60;8.80;;;9.00;77.50;;;;;;2320276;58;21603;-50
2022/11/27 12:53:55;;;;;;;14.43;9.10;;;9.00;77.50;;;;;;2319425;58;21556;-49
2022/11/27 12:56:27;;;;;;;16.00;9.02;;;9.00;77.30;;;;;;2320554;58;21068;-52
2022/11/27 12:59:01;;;;;;;15.70;9.20;;;9.00;77.20;;;;;;2471053;54;21074;-55
2022/11/27 13:01:32;;;;;;;16.67;8.45;;;8.90;77.10;;;;;;2266957;59;21137;-54
2022/11/27 13:04:09;;;;;;;15.35;8.73;;;9.00;77.30;;;;;;2267195;59;22227;-50
2022/11/27 13:06:52;;;;;;;16.95;9.95;;;8.90;77.20;;;;;;2267034;59;21090;-57
2022/11/27 13:09:30;;;;;;;17.00;10.00;;;8.90;77.20;;;;;;2241034;60;21079;-54
2022/11/27 13:11:59;;;;;;;15.38;9.32;;;8.90;77.20;;;;;;2241669;60;21576;-57
2022/11/27 13:14:28;;;;;;;16.25;8.50;;;8.90;77.10;;;;;;2241909;60;21548;-62
2022/11/27 13:16:59;;;;;;;16.45;9.60;;;9.00;77.30;;;;;;2241059;60;21565;-56